createdAt,value
2022-12-08T00:00:00.280Z,1.68
2022-12-08T00:02:31.362Z,1.68
2022-12-08T00:05:19.870Z,1.68
2022-12-08T00:08:10.398Z,1.68
2022-12-08T00:10:51.048Z,1.67
2022-12-08T00:13:21.996Z,1.65
2022-12-08T00:15:53.043Z,1.64
2022-12-08T00:18:23.885Z,1.63
2022-12-08T00:20:59.509Z,1.63
2022-12-08T00:23:30.322Z,1.64
2022-12-08T00:26:05.407Z,1.65
2022-12-08T00:28:36.558Z,1.67
2022-12-08T00:31:12.167Z,1.69
2022-12-08T00:33:43.047Z,1.72
2022-12-08T00:36:15.971Z,1.74
2022-12-08T00:38:48.433Z,1.76
2022-12-08T00:41:41.050Z,1.75
2022-12-08T00:44:14.335Z,1.76
2022-12-08T00:46:45.991Z,1.77
2022-12-08T00:49:17.655Z,1.78
2022-12-08T00:51:48.607Z,1.78
2022-12-08T00:54:20.067Z,1.77
2022-12-08T00:56:50.909Z,1.78
2022-12-08T00:59:22.301Z,1.77
2022-12-08T01:01:53.191Z,1.78
2022-12-08T01:04:24.024Z,1.79
2022-12-08T01:06:54.963Z,1.80
2022-12-08T01:09:26.011Z,1.82
2022-12-08T01:11:57.186Z,1.81
2022-12-08T01:14:28.117Z,1.80
2022-12-08T01:16:59.193Z,1.77
2022-12-08T01:19:31.022Z,1.77
2022-12-08T01:22:01.935Z,1.76
2022-12-08T01:24:32.957Z,1.77
2022-12-08T01:27:03.803Z,1.79
2022-12-08T01:29:34.906Z,1.79
2022-12-08T01:32:06.187Z,1.79
2022-12-08T01:34:37.304Z,1.79
2022-12-08T01:37:10.746Z,1.80
2022-12-08T01:39:41.768Z,1.79
2022-12-08T01:42:24.379Z,1.76
2022-12-08T01:45:01.367Z,1.74
2022-12-08T01:47:39.201Z,1.75
2022-12-08T01:50:14.438Z,1.76
2022-12-08T01:52:50.678Z,1.77
2022-12-08T01:55:27.104Z,1.77
2022-12-08T01:58:01.715Z,1.75
2022-12-08T02:00:32.623Z,1.73
2022-12-08T02:03:05.849Z,1.71
2022-12-08T02:05:40.068Z,1.68
2022-12-08T02:08:14.046Z,1.66
2022-12-08T02:10:47.780Z,1.65
2022-12-08T02:13:21.570Z,1.64
2022-12-08T02:16:05.132Z,1.63
2022-12-08T02:19:02.100Z,1.63
2022-12-08T02:21:49.354Z,1.63
2022-12-08T02:24:31.835Z,1.62
2022-12-08T02:27:29.658Z,1.61
2022-12-08T02:30:14.305Z,1.59
2022-12-08T02:33:20.908Z,1.57
2022-12-08T02:35:59.620Z,1.55
2022-12-08T02:38:47.254Z,1.53
2022-12-08T02:41:30.486Z,1.51
2022-12-08T02:44:07.561Z,1.50
2022-12-08T02:46:42.777Z,1.51
2022-12-08T02:49:14.780Z,1.50
2022-12-08T02:51:45.644Z,1.49
2022-12-08T02:54:17.248Z,1.48
2022-12-08T02:57:01.514Z,1.47
2022-12-08T02:59:45.970Z,1.46
2022-12-08T03:02:37.560Z,1.46
2022-12-08T03:05:14.973Z,1.45
2022-12-08T03:07:52.235Z,1.44
2022-12-08T03:10:30.767Z,1.45
2022-12-08T03:13:07.066Z,1.45
2022-12-08T03:15:39.610Z,1.46
2022-12-08T03:18:16.760Z,1.45
2022-12-08T03:20:49.101Z,1.43
2022-12-08T03:23:21.477Z,1.39
2022-12-08T03:25:57.851Z,1.35
2022-12-08T03:28:28.701Z,1.32
2022-12-08T03:31:06.345Z,1.29
2022-12-08T03:33:41.309Z,1.28
2022-12-08T03:36:14.831Z,1.27
2022-12-08T03:38:48.022Z,1.27
2022-12-08T03:41:19.780Z,1.27
2022-12-08T03:43:51.842Z,1.28
2022-12-08T03:48:55.532Z,1.29
2022-12-08T03:51:28.237Z,1.29
2022-12-08T03:53:59.175Z,1.28
2022-12-08T03:56:32.408Z,1.31
2022-12-08T03:59:03.620Z,1.32
2022-12-08T04:01:34.759Z,1.31
2022-12-08T04:04:05.862Z,1.32
2022-12-08T04:06:36.850Z,1.31
2022-12-08T04:09:07.790Z,1.32
2022-12-08T04:11:38.652Z,1.33
2022-12-08T04:14:09.571Z,1.35
2022-12-08T04:16:40.535Z,1.39
2022-12-08T04:19:11.394Z,1.41
2022-12-08T04:21:42.188Z,1.42
2022-12-08T04:24:12.986Z,1.45
2022-12-08T04:26:43.860Z,1.48
2022-12-08T04:29:14.715Z,1.51
2022-12-08T04:31:45.607Z,1.54
2022-12-08T04:34:16.504Z,1.56
2022-12-08T04:36:47.325Z,1.57
2022-12-08T04:39:18.266Z,1.57
2022-12-08T04:41:49.017Z,1.58
2022-12-08T04:44:20.072Z,1.57
2022-12-08T04:46:50.848Z,1.57
2022-12-08T04:49:21.738Z,1.57
2022-12-08T04:51:52.566Z,1.56
2022-12-08T04:54:23.344Z,1.53
2022-12-08T04:56:54.224Z,1.51
2022-12-08T04:59:25.029Z,1.48
2022-12-08T05:01:56.209Z,1.47
2022-12-08T05:04:27.455Z,1.44
2022-12-08T05:06:58.735Z,1.44
2022-12-08T05:09:29.947Z,1.44
2022-12-08T05:12:00.749Z,1.45
2022-12-08T05:14:31.731Z,1.46
2022-12-08T05:17:07.777Z,1.45
2022-12-08T05:19:40.257Z,1.45
2022-12-08T05:22:11.408Z,1.44
2022-12-08T05:24:47.449Z,1.42
2022-12-08T05:27:18.892Z,1.41
2022-12-08T05:29:50.377Z,1.40
2022-12-08T05:32:21.227Z,1.41
2022-12-08T05:34:52.091Z,1.40
2022-12-08T05:37:22.880Z,1.39
2022-12-08T05:39:54.177Z,1.37
2022-12-08T05:42:25.337Z,1.34
2022-12-08T05:44:56.325Z,1.31
2022-12-08T05:47:28.879Z,1.30
2022-12-08T05:50:02.872Z,1.28
2022-12-08T05:52:34.468Z,1.26
2022-12-08T05:55:06.234Z,1.22
2022-12-08T05:57:37.085Z,1.18
2022-12-08T06:00:10.650Z,1.14
2022-12-08T06:02:44.590Z,1.11
2022-12-08T06:05:15.849Z,1.08
2022-12-08T06:07:46.815Z,1.05
2022-12-08T06:10:17.736Z,1.02
2022-12-08T06:12:48.612Z,1.00
2022-12-08T06:15:19.910Z,1.01
2022-12-08T06:17:51.046Z,1.03
2022-12-08T06:20:21.857Z,1.06
2022-12-08T06:22:52.699Z,1.11
2022-12-08T06:25:23.866Z,1.15
2022-12-08T06:27:54.760Z,1.20
2022-12-08T06:30:26.260Z,1.25
2022-12-08T06:32:57.097Z,1.28
2022-12-08T06:35:28.035Z,1.32
2022-12-08T06:37:58.861Z,1.38
2022-12-08T06:40:29.802Z,1.41
2022-12-08T06:43:01.213Z,1.44
2022-12-08T06:45:32.056Z,1.46
2022-12-08T06:48:04.256Z,1.47
2022-12-08T06:50:36.026Z,1.48
2022-12-08T06:53:06.873Z,1.48
2022-12-08T06:58:28.614Z,1.52
2022-12-08T07:00:59.513Z,1.53
2022-12-08T07:03:30.417Z,1.56
2022-12-08T07:06:04.200Z,1.58
2022-12-08T07:08:36.175Z,1.60
2022-12-08T07:11:15.317Z,1.62
2022-12-08T07:13:51.423Z,1.63
2022-12-08T07:16:22.587Z,1.67
2022-12-08T07:18:53.565Z,1.71
2022-12-08T07:21:25.999Z,1.75
2022-12-08T07:24:00.747Z,1.78
2022-12-08T07:26:31.575Z,1.83
2022-12-08T07:29:06.226Z,1.89
2022-12-08T07:31:38.145Z,1.97
2022-12-08T07:34:09.160Z,2.02
2022-12-08T07:36:40.345Z,2.10
2022-12-08T07:39:11.780Z,2.44
2022-12-08T07:41:42.796Z,3.13
2022-12-08T07:44:13.710Z,3.76
2022-12-08T07:46:44.644Z,4.55
2022-12-08T07:49:15.576Z,5.63
2022-12-08T07:51:46.418Z,6.85
2022-12-08T07:54:17.358Z,8.07
2022-12-08T07:56:48.227Z,9.15
2022-12-08T07:59:19.358Z,10.17
2022-12-08T08:02:21.006Z,11.26
2022-12-08T08:04:46.054Z,12.54
2022-12-08T08:07:20.894Z,13.49
2022-12-08T08:09:51.800Z,14.38
2022-12-08T08:12:32.361Z,15.17
2022-12-08T08:15:05.081Z,15.87
2022-12-08T08:17:37.069Z,16.41
2022-12-08T08:20:11.246Z,16.69
2022-12-08T08:22:42.113Z,16.87
2022-12-08T08:25:14.569Z,17.03
2022-12-08T08:27:50.972Z,17.05
2022-12-08T08:30:22.731Z,17.31
2022-12-08T08:32:53.728Z,17.66
2022-12-08T08:35:25.182Z,18.08
2022-12-08T08:37:56.643Z,18.51
2022-12-08T08:40:27.568Z,18.85
2022-12-08T08:42:58.413Z,19.31
2022-12-08T08:45:29.323Z,19.68
2022-12-08T08:48:00.178Z,20.01
2022-12-08T08:50:35.963Z,20.05
2022-12-08T08:53:08.465Z,19.98
2022-12-08T08:55:41.398Z,20.07
2022-12-08T08:58:12.260Z,20.20
2022-12-08T09:00:43.309Z,20.40
2022-12-08T09:03:14.488Z,20.63
2022-12-08T09:05:45.412Z,20.73
2022-12-08T09:08:16.469Z,20.28
2022-12-08T09:10:47.421Z,19.39
2022-12-08T09:13:18.326Z,18.47
2022-12-08T09:15:49.404Z,17.57
2022-12-08T09:18:20.553Z,16.92
2022-12-08T09:20:51.903Z,16.22
2022-12-08T09:23:22.730Z,15.36
2022-12-08T09:25:56.594Z,14.54
2022-12-08T09:28:27.367Z,13.90
2022-12-08T09:30:59.485Z,13.38
2022-12-08T09:33:31.431Z,12.92
2022-12-08T09:36:06.465Z,12.34
2022-12-08T09:38:38.881Z,11.71
2022-12-08T09:41:21.902Z,11.33
2022-12-08T09:44:08.341Z,10.96
2022-12-08T09:46:40.811Z,10.80
2022-12-08T09:49:19.954Z,10.47
2022-12-08T09:51:50.903Z,10.09
2022-12-08T09:54:26.270Z,9.97
2022-12-08T09:57:02.306Z,9.61
2022-12-08T09:59:35.745Z,9.35
2022-12-08T10:02:20.306Z,9.10
2022-12-08T10:04:51.595Z,8.80
2022-12-08T10:07:30.853Z,8.51
2022-12-08T10:10:08.851Z,8.26
2022-12-08T10:12:47.791Z,8.07
2022-12-08T10:15:37.776Z,7.85
2022-12-08T10:18:18.255Z,7.51
2022-12-08T10:20:51.102Z,7.34
2022-12-08T10:23:36.000Z,7.34
2022-12-08T10:26:09.103Z,7.19
2022-12-08T10:28:44.772Z,6.99
2022-12-08T10:31:22.189Z,6.78
2022-12-08T10:33:59.293Z,6.57
2022-12-08T10:36:48.017Z,6.35
2022-12-08T10:39:39.635Z,6.15
2022-12-08T10:42:22.648Z,6.05
2022-12-08T10:45:03.890Z,5.90
2022-12-08T10:47:42.509Z,5.74
2022-12-08T10:50:24.662Z,5.51
2022-12-08T10:53:04.579Z,5.32
2022-12-08T10:55:47.042Z,5.24
2022-12-08T10:58:42.334Z,5.15
2022-12-08T11:01:18.550Z,5.06
2022-12-08T11:03:52.799Z,4.97
2022-12-08T11:06:26.552Z,4.90
2022-12-08T11:09:01.092Z,4.80
2022-12-08T11:11:46.015Z,4.70
2022-12-08T11:14:23.857Z,4.55
2022-12-08T11:16:57.227Z,4.40
2022-12-08T11:19:29.091Z,4.33
2022-12-08T11:22:00.190Z,4.29
2022-12-08T11:24:37.843Z,4.27
2022-12-08T11:27:09.857Z,4.24
2022-12-08T11:29:41.105Z,4.20
2022-12-08T11:32:15.462Z,4.16
2022-12-08T11:34:51.995Z,4.09
2022-12-08T11:37:34.682Z,4.00
2022-12-08T11:40:16.445Z,3.95
2022-12-08T11:42:55.989Z,3.91
2022-12-08T11:45:31.543Z,3.89
2022-12-08T11:48:12.051Z,3.85
2022-12-08T11:50:48.916Z,3.85
2022-12-08T11:53:27.901Z,3.82
2022-12-08T11:56:03.376Z,3.80
2022-12-08T11:58:43.318Z,3.77
2022-12-08T12:01:21.167Z,3.72
2022-12-08T12:04:00.805Z,3.69
2022-12-08T12:06:55.091Z,3.66
2022-12-08T12:09:39.839Z,3.60
2022-12-08T12:12:23.089Z,3.57
2022-12-08T12:15:24.361Z,3.54
2022-12-08T12:18:00.909Z,3.52
2022-12-08T12:20:36.254Z,3.53
2022-12-08T12:23:15.825Z,3.56
2022-12-08T12:25:56.857Z,3.57
2022-12-08T12:28:32.036Z,3.58
2022-12-08T12:31:08.048Z,3.59
2022-12-08T12:33:39.446Z,3.61
2022-12-08T12:36:13.006Z,3.62
2022-12-08T12:39:06.359Z,3.61
2022-12-08T12:41:48.425Z,3.59
2022-12-08T12:44:38.466Z,3.58
2022-12-08T12:47:14.809Z,3.59
2022-12-08T12:50:08.944Z,3.58
2022-12-08T12:52:51.559Z,3.56
2022-12-08T12:55:55.949Z,3.50
2022-12-08T12:58:43.094Z,3.39
2022-12-08T13:01:50.800Z,3.30
2022-12-08T13:04:36.380Z,3.24
2022-12-08T13:07:09.275Z,3.24
2022-12-08T13:09:41.709Z,3.23
2022-12-08T13:12:24.525Z,3.24
2022-12-08T13:15:00.506Z,3.22
2022-12-08T13:17:36.090Z,3.20
2022-12-08T13:20:21.828Z,3.18
2022-12-08T13:23:12.179Z,3.16
2022-12-08T13:26:12.223Z,3.16
2022-12-08T13:29:19.427Z,3.17
2022-12-08T13:31:52.869Z,3.19
2022-12-08T13:34:31.553Z,3.20
2022-12-08T13:37:23.403Z,3.20
2022-12-08T13:40:00.324Z,3.20
2022-12-08T13:42:42.176Z,3.17
2022-12-08T13:45:48.614Z,3.14
2022-12-08T13:48:35.262Z,3.11
2022-12-08T13:53:28.427Z,3.10
2022-12-08T13:57:10.552Z,3.10
2022-12-08T13:59:46.712Z,3.07
2022-12-08T14:02:27.319Z,3.05
2022-12-08T14:07:53.490Z,3.06
2022-12-08T14:10:28.362Z,3.03
2022-12-08T14:13:02.422Z,3.01
2022-12-08T14:15:38.294Z,2.97
2022-12-08T14:18:25.777Z,2.93
2022-12-08T14:21:21.145Z,2.90
2022-12-08T14:23:52.592Z,2.88
2022-12-08T14:26:23.561Z,2.86
2022-12-08T14:28:54.839Z,2.84
2022-12-08T14:31:28.898Z,2.82
2022-12-08T14:33:59.867Z,2.80
2022-12-08T14:36:33.466Z,2.81
2022-12-08T14:39:05.311Z,2.82
2022-12-08T14:41:36.218Z,2.85
2022-12-08T14:44:21.409Z,2.89
2022-12-08T14:49:49.158Z,2.99
2022-12-08T14:52:20.070Z,3.00
2022-12-08T14:54:57.288Z,3.00
2022-12-08T14:57:37.638Z,3.00
2022-12-08T15:00:22.010Z,3.01
2022-12-08T15:02:52.954Z,3.00
2022-12-08T15:05:30.711Z,2.99
2022-12-08T15:08:05.731Z,2.99
2022-12-08T15:10:39.988Z,2.96
2022-12-08T15:13:23.975Z,2.93
2022-12-08T15:15:56.824Z,2.92
2022-12-08T15:18:37.290Z,2.92
2022-12-08T15:21:12.899Z,2.92
2022-12-08T15:23:46.790Z,2.92
2022-12-08T15:26:22.328Z,2.91
2022-12-08T15:28:53.862Z,2.89
2022-12-08T15:31:24.767Z,2.90
2022-12-08T15:33:55.829Z,2.91
2022-12-08T15:36:26.718Z,2.93
2022-12-08T15:38:57.814Z,2.93
2022-12-08T15:41:28.650Z,2.97
2022-12-08T15:43:59.505Z,3.00
2022-12-08T15:46:30.522Z,3.02
2022-12-08T15:49:01.570Z,3.02
2022-12-08T15:51:36.527Z,3.01
2022-12-08T15:54:07.760Z,3.03
2022-12-08T15:56:45.464Z,3.06
2022-12-08T15:59:23.915Z,3.07
2022-12-08T16:01:55.262Z,3.08
2022-12-08T16:07:24.435Z,3.11
2022-12-08T16:09:56.271Z,3.11
2022-12-08T16:13:48.285Z,3.09
2022-12-08T16:15:53.637Z,3.07
2022-12-08T16:18:34.487Z,3.06
2022-12-08T16:21:16.901Z,3.05
2022-12-08T16:23:57.230Z,3.06
2022-12-08T16:27:28.453Z,3.07
2022-12-08T16:29:22.660Z,3.08
2022-12-08T16:31:53.550Z,3.09
2022-12-08T16:34:24.650Z,3.10
2022-12-08T16:36:55.589Z,3.11
2022-12-08T16:39:26.779Z,3.11
2022-12-08T16:42:15.353Z,3.11
2022-12-08T16:44:46.549Z,3.10
2022-12-08T16:47:17.636Z,3.07
2022-12-08T16:49:48.731Z,3.04
2022-12-08T16:52:19.888Z,3.04
2022-12-08T16:54:50.816Z,3.03
2022-12-08T16:57:21.977Z,3.01
2022-12-08T16:59:53.186Z,3.00
2022-12-08T17:02:24.746Z,3.00
2022-12-08T17:05:00.347Z,3.00
2022-12-08T17:07:32.110Z,3.00
2022-12-08T17:10:06.388Z,3.01
2022-12-08T17:12:38.113Z,3.03
2022-12-08T17:15:12.697Z,3.04
2022-12-08T17:17:43.811Z,3.05
2022-12-08T17:20:17.927Z,3.05
2022-12-08T17:22:49.939Z,3.05
2022-12-08T17:25:21.215Z,3.03
2022-12-08T17:27:52.319Z,3.02
2022-12-08T17:30:23.643Z,3.01
2022-12-08T17:32:54.561Z,2.99
2022-12-08T17:35:25.985Z,2.98
2022-12-08T17:37:57.103Z,2.97
2022-12-08T17:40:28.515Z,2.96
2022-12-08T17:42:59.937Z,2.96
2022-12-08T17:45:31.060Z,2.97
2022-12-08T17:48:02.046Z,2.96
2022-12-08T17:50:32.978Z,2.95
2022-12-08T17:53:03.814Z,2.96
2022-12-08T17:55:34.925Z,2.96
2022-12-08T17:58:06.683Z,2.96
2022-12-08T18:00:38.171Z,2.97
2022-12-08T18:03:08.974Z,2.98
2022-12-08T18:05:40.072Z,3.01
2022-12-08T18:08:11.882Z,3.05
2022-12-08T18:10:43.064Z,3.08
2022-12-08T18:13:13.953Z,3.10
2022-12-08T18:15:46.994Z,3.14
2022-12-08T18:18:20.295Z,3.15
2022-12-08T18:20:51.418Z,3.17
2022-12-08T18:23:22.233Z,3.19
2022-12-08T18:25:54.618Z,3.20
2022-12-08T18:28:26.896Z,3.21
2022-12-08T18:30:57.992Z,3.19
2022-12-08T18:33:29.289Z,3.16
2022-12-08T18:36:03.087Z,3.15
2022-12-08T18:38:34.823Z,3.13
2022-12-08T18:41:10.489Z,3.13
2022-12-08T18:43:41.869Z,3.14
2022-12-08T18:46:15.024Z,3.16
2022-12-08T18:48:49.273Z,3.18
2022-12-08T18:51:23.285Z,3.18
2022-12-08T18:53:54.566Z,3.18
2022-12-08T18:56:27.801Z,3.18
2022-12-08T18:59:03.585Z,3.18
2022-12-08T19:01:36.425Z,3.18
2022-12-08T19:04:27.853Z,3.15
2022-12-08T19:07:01.648Z,3.13
2022-12-08T19:09:32.689Z,3.12
2022-12-08T19:12:04.087Z,3.11
2022-12-08T19:14:35.610Z,3.09
2022-12-08T19:17:06.874Z,3.05
2022-12-08T19:19:38.367Z,3.02
2022-12-08T19:22:09.697Z,2.99
2022-12-08T19:24:40.634Z,2.93
2022-12-08T19:27:11.620Z,2.87
2022-12-08T19:29:42.628Z,2.83
2022-12-08T19:32:13.613Z,2.77
2022-12-08T19:34:44.454Z,2.73
2022-12-08T19:37:17.485Z,2.68
2022-12-08T19:40:06.469Z,2.63
2022-12-08T19:42:55.473Z,2.57
2022-12-08T19:45:27.748Z,2.50
2022-12-08T19:47:58.717Z,2.46
2022-12-08T19:50:39.217Z,2.39
2022-12-08T19:53:12.127Z,2.31
2022-12-08T19:55:43.747Z,2.26
2022-12-08T19:58:14.985Z,2.21
2022-12-08T20:00:46.575Z,2.16
2022-12-08T20:03:19.888Z,2.11
2022-12-08T20:05:53.961Z,2.08
2022-12-08T20:08:25.029Z,2.05
2022-12-08T20:10:59.201Z,2.01
2022-12-08T20:13:44.726Z,1.98
2022-12-08T20:16:17.136Z,1.94
2022-12-08T20:18:48.831Z,1.91
2022-12-08T20:21:20.491Z,1.88
2022-12-08T20:23:51.483Z,1.87
2022-12-08T20:26:24.900Z,1.84
2022-12-08T20:28:55.993Z,1.83
2022-12-08T20:31:29.130Z,1.81
2022-12-08T20:34:00.140Z,1.78
2022-12-08T20:36:31.569Z,1.75
2022-12-08T20:39:02.870Z,1.73
2022-12-08T20:41:38.813Z,1.73
2022-12-08T20:44:10.845Z,1.71
2022-12-08T20:46:47.753Z,1.70
2022-12-08T20:49:20.186Z,1.68
2022-12-08T20:51:51.329Z,1.66
2022-12-08T20:54:22.582Z,1.63
2022-12-08T20:56:53.654Z,1.61
2022-12-08T20:59:26.377Z,1.60
2022-12-08T21:01:57.630Z,1.59
2022-12-08T21:04:29.427Z,1.59
2022-12-08T21:07:00.950Z,1.58
2022-12-08T21:09:32.202Z,1.58
2022-12-08T21:12:03.779Z,1.58
2022-12-08T21:14:36.250Z,1.59
2022-12-08T21:17:07.722Z,1.60
2022-12-08T21:19:39.379Z,1.60
2022-12-08T21:22:10.837Z,1.61
2022-12-08T21:24:42.378Z,1.62
2022-12-08T21:27:14.064Z,1.63
2022-12-08T21:29:45.541Z,1.64
2022-12-08T21:32:17.527Z,1.65
2022-12-08T21:34:48.881Z,1.66
2022-12-08T21:37:19.877Z,1.66
2022-12-08T21:39:51.852Z,1.67
2022-12-08T21:42:40.914Z,1.68
2022-12-08T21:45:14.278Z,1.70
2022-12-08T21:47:46.266Z,1.71
2022-12-08T21:50:18.511Z,1.75
2022-12-08T21:52:51.087Z,1.77
2022-12-08T21:55:23.831Z,1.79
2022-12-08T21:57:57.219Z,1.80
2022-12-08T22:00:29.850Z,1.81
2022-12-08T22:03:01.602Z,1.81
2022-12-08T22:05:33.467Z,1.83
2022-12-08T22:08:05.234Z,1.85
2022-12-08T22:10:36.919Z,1.86
2022-12-08T22:13:08.313Z,1.86
2022-12-08T22:15:39.624Z,1.85
2022-12-08T22:18:11.851Z,1.85
2022-12-08T22:20:44.565Z,1.83
2022-12-08T22:23:15.720Z,1.81
2022-12-08T22:25:47.624Z,1.78
2022-12-08T22:28:18.936Z,1.74
2022-12-08T22:30:50.234Z,1.72
2022-12-08T22:33:21.787Z,1.72
2022-12-08T22:36:04.711Z,1.71
2022-12-08T22:38:37.843Z,1.72
2022-12-08T22:41:09.545Z,1.73
2022-12-08T22:43:41.499Z,1.74
2022-12-08T22:46:15.551Z,1.73
2022-12-08T22:48:46.973Z,1.73
2022-12-08T22:51:19.340Z,1.74
2022-12-08T22:53:51.008Z,1.73
2022-12-08T22:56:22.151Z,1.72
2022-12-08T22:58:53.286Z,1.71
2022-12-08T23:01:27.819Z,1.70
2022-12-08T23:03:59.755Z,1.71
2022-12-08T23:06:32.761Z,1.70
2022-12-08T23:09:04.310Z,1.72
2022-12-08T23:11:36.252Z,1.75
2022-12-08T23:14:07.468Z,1.78
2022-12-08T23:16:38.953Z,1.80
2022-12-08T23:19:10.495Z,1.79
2022-12-08T23:21:41.717Z,1.76
2022-12-08T23:24:12.934Z,1.73
2022-12-08T23:26:44.039Z,1.70
2022-12-08T23:32:04.773Z,1.65
2022-12-08T23:34:36.360Z,1.60
2022-12-08T23:37:07.721Z,1.57
2022-12-08T23:39:39.475Z,1.55
2022-12-08T23:42:11.108Z,1.52
2022-12-08T23:44:42.900Z,1.51
2022-12-08T23:47:14.349Z,1.49
2022-12-08T23:49:45.717Z,1.48
2022-12-08T23:52:17.400Z,1.47
2022-12-08T23:54:50.739Z,1.46
2022-12-08T23:57:22.182Z,1.46
2022-12-08T23:59:53.150Z,1.47
